Ankeny, Iowa
Current Conditions -  °F | °C
As of 1:35 AM on Thursday 23 Oct 2014 (Local Time) from KIKV Reporting Station
Overcast Overcast  
Wind Chill: 54°   Ceiling: 3800
Heat Index: 54°   Visibility: 10mi
Dew Point: 46°   Wind: 3mph
Humidity: 77%   Direction: 180°S
Pressure: 30.11"   Gusts: NA
Location:  41.73°N, 93.6°W
Report Text: KIKV 230635Z AUTO 18003KT 10SM BKN038 BKN055 OVC110 12/08 A3011 RMK AO2
Loading
Personal Weather Stations






























Interactive Weather Map
Tropical Storm Tracking
New forecast layout! Learn more

10-Day Weather Forecast

Advertisements
Track Severe Weather on mobile